createdAt,value
2023-04-04T00:00:22.782Z,23.11
2023-04-04T00:01:22.854Z,23.11
2023-04-04T00:02:22.930Z,23.10
2023-04-04T00:03:23.134Z,23.10
2023-04-04T00:04:23.001Z,23.11
2023-04-04T00:05:23.079Z,23.10
2023-04-04T00:06:23.088Z,23.09
2023-04-04T00:07:23.099Z,23.10
2023-04-04T00:08:23.212Z,23.10
2023-04-04T00:09:23.218Z,23.10
2023-04-04T00:10:23.246Z,23.09
2023-04-04T00:11:23.304Z,23.10
2023-04-04T00:12:25.816Z,23.09
2023-04-04T00:13:23.318Z,23.09
2023-04-04T00:14:23.365Z,23.08
2023-04-04T00:15:23.290Z,23.09
2023-04-04T00:16:23.343Z,23.09
2023-04-04T00:17:23.318Z,23.09
2023-04-04T00:18:23.320Z,23.08
2023-04-04T00:19:23.277Z,23.08
2023-04-04T00:20:23.293Z,23.08
2023-04-04T00:21:23.300Z,23.08
2023-04-04T00:22:23.322Z,23.08
2023-04-04T00:23:23.306Z,23.07
2023-04-04T00:24:23.246Z,23.08
2023-04-04T00:25:23.331Z,23.08
2023-04-04T00:26:23.298Z,23.08
2023-04-04T00:27:23.240Z,23.07
2023-04-04T00:28:23.244Z,23.07
2023-04-04T00:29:23.251Z,23.07
2023-04-04T00:30:23.240Z,23.07
2023-04-04T00:31:23.235Z,23.07
2023-04-04T00:32:23.246Z,23.07
2023-04-04T00:33:23.202Z,23.07
2023-04-04T00:34:23.182Z,23.06
2023-04-04T00:35:23.226Z,23.06
2023-04-04T00:36:23.171Z,23.06
2023-04-04T00:37:23.248Z,23.06
2023-04-04T00:38:23.273Z,23.05
2023-04-04T00:39:23.365Z,23.06
2023-04-04T00:40:23.411Z,23.05
2023-04-04T00:41:23.407Z,23.05
2023-04-04T00:42:23.476Z,23.05
2023-04-04T00:43:23.473Z,23.05
2023-04-04T00:44:23.562Z,23.05
2023-04-04T00:45:23.645Z,23.05
2023-04-04T00:46:23.665Z,23.05
2023-04-04T00:47:25.549Z,23.04
2023-04-04T00:48:23.754Z,23.04
2023-04-04T00:49:23.807Z,23.05
2023-04-04T00:50:23.852Z,23.04
2023-04-04T00:51:23.932Z,23.04
2023-04-04T00:52:24.049Z,23.03
2023-04-04T00:53:24.000Z,23.03
2023-04-04T00:54:24.074Z,23.03
2023-04-04T00:55:24.115Z,23.03
2023-04-04T00:56:24.150Z,23.02
2023-04-04T00:57:24.202Z,23.02
2023-04-04T00:58:24.268Z,23.03
2023-04-04T00:59:24.461Z,23.02
2023-04-04T01:00:24.353Z,23.03
2023-04-04T01:01:24.485Z,23.02
2023-04-04T01:02:24.487Z,23.03
2023-04-04T01:03:24.531Z,23.02
2023-04-04T01:04:24.684Z,23.02
2023-04-04T01:05:24.625Z,23.02
2023-04-04T01:06:24.737Z,23.01
2023-04-04T01:07:24.749Z,23.01
2023-04-04T01:08:24.852Z,23.01
2023-04-04T01:09:24.857Z,23.01
2023-04-04T01:10:24.901Z,23.01
2023-04-04T01:11:24.968Z,23.01
2023-04-04T01:12:25.013Z,23.01
2023-04-04T01:13:25.101Z,23.00
2023-04-04T01:14:25.164Z,23.01
2023-04-04T01:15:25.199Z,23.01
2023-04-04T01:16:25.296Z,23.00
2023-04-04T01:17:25.302Z,23.01
2023-04-04T01:18:25.363Z,23.00
2023-04-04T01:19:25.421Z,22.99
2023-04-04T01:20:25.445Z,23.00
2023-04-04T01:21:25.534Z,23.00
2023-04-04T01:22:25.585Z,23.00
2023-04-04T01:23:25.653Z,23.00
2023-04-04T01:24:25.677Z,23.00
2023-04-04T01:25:25.794Z,22.99
2023-04-04T01:26:25.781Z,22.99
2023-04-04T01:27:25.878Z,22.99
2023-04-04T01:28:25.945Z,22.99
2023-04-04T01:29:25.952Z,22.99
2023-04-04T01:30:26.006Z,22.98
2023-04-04T01:31:26.177Z,22.98
2023-04-04T01:32:26.115Z,22.98
2023-04-04T01:33:26.188Z,22.98
2023-04-04T01:34:26.211Z,22.98
2023-04-04T01:35:26.293Z,22.97
2023-04-04T01:36:26.342Z,22.97
2023-04-04T01:37:26.389Z,22.97
2023-04-04T01:38:26.485Z,22.97
2023-04-04T01:39:26.542Z,22.97
2023-04-04T01:40:26.606Z,22.97
2023-04-04T01:41:26.612Z,22.96
2023-04-04T01:42:26.691Z,22.97
2023-04-04T01:43:26.695Z,22.96
2023-04-04T01:44:26.770Z,22.96
2023-04-04T01:45:26.854Z,22.96
2023-04-04T01:46:26.952Z,22.95
2023-04-04T01:47:27.069Z,22.95
2023-04-04T01:48:27.010Z,22.95
2023-04-04T01:49:27.050Z,22.95
2023-04-04T01:50:27.120Z,22.95
2023-04-04T01:51:27.195Z,22.95
2023-04-04T01:52:27.234Z,22.95
2023-04-04T01:53:27.277Z,22.94
2023-04-04T01:54:27.329Z,22.95
2023-04-04T01:55:27.436Z,22.94
2023-04-04T01:56:27.421Z,22.94
2023-04-04T01:57:27.524Z,22.94
2023-04-04T01:58:27.537Z,22.94
2023-04-04T01:59:27.685Z,22.94
2023-04-04T02:00:27.669Z,22.94
2023-04-04T02:01:27.730Z,22.94
2023-04-04T02:02:27.764Z,22.93
2023-04-04T02:03:27.824Z,22.93
2023-04-04T02:04:27.893Z,22.93
2023-04-04T02:05:27.935Z,22.93
2023-04-04T02:06:27.986Z,22.93
2023-04-04T02:07:28.025Z,22.93
2023-04-04T02:08:28.122Z,22.93
2023-04-04T02:09:28.255Z,22.92
2023-04-04T02:10:28.215Z,22.93
2023-04-04T02:11:28.271Z,22.92
2023-04-04T02:12:28.311Z,22.92
2023-04-04T02:13:28.365Z,22.92
2023-04-04T02:14:28.396Z,22.92
2023-04-04T02:15:28.485Z,22.92
2023-04-04T02:16:28.526Z,22.92
2023-04-04T02:17:28.595Z,22.92
2023-04-04T02:18:28.646Z,22.91
2023-04-04T02:19:28.715Z,22.91
2023-04-04T02:20:28.801Z,22.92
2023-04-04T02:21:28.821Z,22.91
2023-04-04T02:22:28.860Z,22.91
2023-04-04T02:23:28.911Z,22.90
2023-04-04T02:24:28.989Z,22.90
2023-04-04T02:25:29.044Z,22.90
2023-04-04T02:26:29.084Z,22.89
2023-04-04T02:27:29.209Z,22.91
2023-04-04T02:28:29.264Z,22.90
2023-04-04T02:29:29.264Z,22.90
2023-04-04T02:30:29.368Z,22.89
2023-04-04T02:31:29.439Z,22.89
2023-04-04T02:32:29.525Z,22.89
2023-04-04T02:33:29.521Z,22.89
2023-04-04T02:34:29.549Z,22.89
2023-04-04T02:35:29.610Z,22.88
2023-04-04T02:36:29.687Z,22.89
2023-04-04T02:37:29.720Z,22.89
2023-04-04T02:38:29.803Z,22.88
2023-04-04T02:39:29.870Z,22.89
2023-04-04T02:40:29.922Z,22.88
2023-04-04T02:41:29.958Z,22.88
2023-04-04T02:42:30.040Z,22.88
2023-04-04T02:43:30.071Z,22.87
2023-04-04T02:44:30.116Z,22.87
2023-04-04T02:45:30.192Z,22.87
2023-04-04T02:46:30.268Z,22.87
2023-04-04T02:47:30.312Z,22.87
2023-04-04T02:48:30.354Z,22.87
2023-04-04T02:49:30.396Z,22.87
2023-04-04T02:50:30.463Z,22.87
2023-04-04T02:51:30.475Z,22.87
2023-04-04T02:52:30.572Z,22.86
2023-04-04T02:53:30.596Z,22.86
2023-04-04T02:54:30.618Z,22.86
2023-04-04T02:55:30.703Z,22.86
2023-04-04T02:56:30.803Z,22.86
2023-04-04T02:57:30.832Z,22.87
2023-04-04T02:58:30.899Z,22.86
2023-04-04T02:59:30.970Z,22.86
2023-04-04T03:00:30.985Z,22.86
2023-04-04T03:01:31.082Z,22.86
2023-04-04T03:02:31.275Z,22.86
2023-04-04T03:03:31.309Z,22.85
2023-04-04T03:04:31.210Z,22.85
2023-04-04T03:05:31.253Z,22.85
2023-04-04T03:06:31.312Z,22.85
2023-04-04T03:07:31.357Z,22.84
2023-04-04T03:08:31.449Z,22.85
2023-04-04T03:09:31.520Z,22.85
2023-04-04T03:10:31.532Z,22.84
2023-04-04T03:11:31.628Z,22.84
2023-04-04T03:12:31.643Z,22.84
2023-04-04T03:13:31.713Z,22.84
2023-04-04T03:14:31.759Z,22.84
2023-04-04T03:15:31.816Z,22.84
2023-04-04T03:16:31.910Z,22.84
2023-04-04T03:17:31.966Z,22.83
2023-04-04T03:18:31.974Z,22.83
2023-04-04T03:19:31.986Z,22.84
2023-04-04T03:20:32.040Z,22.83
2023-04-04T03:21:32.106Z,22.83
2023-04-04T03:22:32.141Z,22.82
2023-04-04T03:23:32.200Z,22.82
2023-04-04T03:24:32.269Z,22.81
2023-04-04T03:25:32.301Z,22.82
2023-04-04T03:26:32.442Z,22.82
2023-04-04T03:27:32.443Z,22.82
2023-04-04T03:28:32.465Z,22.81
2023-04-04T03:29:32.564Z,22.81
2023-04-04T03:30:32.584Z,22.81
2023-04-04T03:31:32.629Z,22.81
2023-04-04T03:32:32.715Z,22.81
2023-04-04T03:33:32.731Z,22.80
2023-04-04T03:34:32.893Z,22.79
2023-04-04T03:35:32.868Z,22.80
2023-04-04T03:36:32.934Z,22.81
2023-04-04T03:37:32.919Z,22.79
2023-04-04T03:38:33.029Z,22.79
2023-04-04T03:39:33.069Z,22.79
2023-04-04T03:40:33.083Z,22.79
2023-04-04T03:41:33.168Z,22.79
2023-04-04T03:42:33.216Z,22.79
2023-04-04T03:43:33.257Z,22.79
2023-04-04T03:44:33.329Z,22.79
2023-04-04T03:45:33.407Z,22.79
2023-04-04T03:46:35.471Z,22.79
2023-04-04T03:47:33.629Z,22.79
2023-04-04T03:48:33.661Z,22.79
2023-04-04T03:49:33.701Z,22.78
2023-04-04T03:50:33.702Z,22.78
2023-04-04T03:51:33.753Z,22.78
2023-04-04T03:52:33.849Z,22.78
2023-04-04T03:53:33.863Z,22.78
2023-04-04T03:54:33.940Z,22.77
2023-04-04T03:55:34.005Z,22.77
2023-04-04T03:56:34.048Z,22.77
2023-04-04T03:57:34.083Z,22.77
2023-04-04T03:58:34.143Z,22.77
2023-04-04T03:59:34.228Z,22.78
2023-04-04T04:00:34.256Z,22.77
2023-04-04T04:01:34.298Z,22.77
2023-04-04T04:02:34.464Z,22.76
2023-04-04T04:03:34.541Z,22.75
2023-04-04T04:04:34.551Z,22.74
2023-04-04T04:05:34.557Z,22.73
2023-04-04T04:06:34.605Z,22.72
2023-04-04T04:07:34.636Z,22.71
2023-04-04T04:08:34.705Z,22.71
2023-04-04T04:09:34.781Z,22.70
2023-04-04T04:10:34.810Z,22.69
2023-04-04T04:11:34.825Z,22.67
2023-04-04T04:12:34.901Z,22.66
2023-04-04T04:13:34.970Z,22.65
2023-04-04T04:14:35.001Z,22.64
2023-04-04T04:15:35.064Z,22.64
2023-04-04T04:16:35.217Z,22.64
2023-04-04T04:17:35.153Z,22.62
2023-04-04T04:18:35.176Z,22.60
2023-04-04T04:19:35.272Z,22.58
2023-04-04T04:20:35.310Z,22.58
2023-04-04T04:21:35.356Z,22.56
2023-04-04T04:22:35.382Z,22.57
2023-04-04T04:23:35.399Z,22.56
2023-04-04T04:24:35.388Z,22.55
2023-04-04T04:25:35.377Z,22.55
2023-04-04T04:26:35.414Z,22.54
2023-04-04T04:27:35.409Z,22.53
2023-04-04T04:28:35.426Z,22.53
2023-04-04T04:29:35.431Z,22.52
2023-04-04T04:30:35.365Z,22.52
2023-04-04T04:31:35.421Z,22.52
2023-04-04T04:32:35.425Z,22.52
2023-04-04T04:33:35.449Z,22.52
2023-04-04T04:34:35.481Z,22.53
2023-04-04T04:35:35.520Z,22.54
2023-04-04T04:36:35.528Z,22.54
2023-04-04T04:37:35.535Z,22.54
2023-04-04T04:38:35.597Z,22.55
2023-04-04T04:39:35.638Z,22.56
2023-04-04T04:40:35.726Z,22.56
2023-04-04T04:41:35.695Z,22.57
2023-04-04T04:42:35.756Z,22.57
2023-04-04T04:43:35.774Z,22.58
2023-04-04T04:44:35.833Z,22.58
2023-04-04T04:45:35.865Z,22.59
2023-04-04T04:46:35.969Z,22.58
2023-04-04T04:47:35.957Z,22.59
2023-04-04T04:48:36.115Z,22.60
2023-04-04T04:49:36.106Z,22.60
2023-04-04T04:50:36.163Z,22.61
2023-04-04T04:51:36.221Z,22.61
2023-04-04T04:52:36.282Z,22.61
2023-04-04T04:53:36.365Z,22.62
2023-04-04T04:54:36.349Z,22.62
2023-04-04T04:55:36.483Z,22.63
2023-04-04T04:56:36.543Z,22.63
2023-04-04T04:57:36.612Z,22.63
2023-04-04T04:58:36.629Z,22.65
2023-04-04T04:59:36.672Z,22.64
2023-04-04T05:00:36.849Z,22.65
2023-04-04T05:01:36.870Z,22.65
2023-04-04T05:02:36.990Z,22.66
2023-04-04T05:03:36.942Z,22.66
2023-04-04T05:04:36.984Z,22.68
2023-04-04T05:05:37.054Z,22.67
2023-04-04T05:06:37.121Z,22.69
2023-04-04T05:07:37.199Z,22.69
2023-04-04T05:08:37.223Z,22.69
2023-04-04T05:09:37.272Z,22.70
2023-04-04T05:10:37.346Z,22.70
2023-04-04T05:11:37.428Z,22.71
2023-04-04T05:12:37.442Z,22.72
2023-04-04T05:13:37.482Z,22.73
2023-04-04T05:14:37.602Z,22.73
2023-04-04T05:15:37.610Z,22.74
2023-04-04T05:16:37.743Z,22.75
2023-04-04T05:17:37.726Z,22.77
2023-04-04T05:18:37.798Z,22.81
2023-04-04T05:19:37.861Z,22.85
2023-04-04T05:20:38.284Z,22.88
2023-04-04T05:21:37.930Z,22.91
2023-04-04T05:22:37.989Z,22.94
2023-04-04T05:23:38.033Z,22.96
2023-04-04T05:24:38.096Z,22.99
2023-04-04T05:25:38.105Z,23.02
2023-04-04T05:26:38.176Z,23.06
2023-04-04T05:27:38.267Z,23.10
2023-04-04T05:28:38.299Z,23.17
2023-04-04T05:29:38.348Z,23.22
2023-04-04T05:30:38.534Z,23.29
2023-04-04T05:31:38.450Z,23.34
2023-04-04T05:32:38.483Z,23.38
2023-04-04T05:33:38.450Z,23.42
2023-04-04T05:34:38.484Z,23.46
2023-04-04T05:35:38.535Z,23.52
2023-04-04T05:36:38.620Z,23.67
2023-04-04T05:37:38.456Z,24.00
2023-04-04T05:38:38.568Z,24.57
2023-04-04T05:39:38.477Z,25.32
2023-04-04T05:40:38.712Z,26.18
2023-04-04T05:41:38.500Z,27.01
2023-04-04T05:42:38.598Z,27.75
2023-04-04T05:43:38.697Z,28.41
2023-04-04T05:44:38.682Z,29.01
2023-04-04T05:45:40.614Z,29.55
2023-04-04T05:46:38.942Z,29.90
2023-04-04T05:47:38.742Z,30.23
2023-04-04T05:48:38.706Z,30.51
2023-04-04T05:49:38.689Z,30.81
2023-04-04T05:50:38.783Z,31.08
2023-04-04T05:51:38.695Z,31.30
2023-04-04T05:52:38.674Z,31.54
2023-04-04T05:53:38.652Z,31.79
2023-04-04T05:54:38.682Z,32.03
2023-04-04T05:55:38.683Z,32.21
2023-04-04T05:56:38.620Z,32.45
2023-04-04T05:57:38.697Z,32.74
2023-04-04T05:58:38.604Z,32.90
2023-04-04T05:59:38.620Z,32.97
2023-04-04T06:00:38.882Z,33.06
2023-04-04T06:01:38.602Z,33.23
2023-04-04T06:02:38.704Z,32.98
2023-04-04T06:03:38.663Z,32.04
2023-04-04T06:04:38.580Z,30.70
2023-04-04T06:05:38.591Z,29.58
2023-04-04T06:06:38.552Z,28.77
2023-04-04T06:07:38.591Z,28.20
2023-04-04T06:08:50.598Z,27.76
2023-04-04T06:09:39.516Z,27.41
2023-04-04T06:10:38.679Z,27.15
2023-04-04T06:11:38.555Z,26.94
2023-04-04T06:12:38.541Z,26.75
2023-04-04T06:13:38.534Z,26.61
2023-04-04T06:14:38.506Z,26.49
2023-04-04T06:15:38.532Z,26.40
2023-04-04T06:16:38.532Z,26.32
2023-04-04T06:17:38.599Z,26.25
2023-04-04T06:18:38.511Z,26.18
2023-04-04T06:19:38.521Z,26.14
2023-04-04T06:20:38.714Z,26.10
2023-04-04T06:21:38.464Z,26.07
2023-04-04T06:22:38.476Z,26.05
2023-04-04T06:23:38.465Z,26.05
2023-04-04T06:24:38.460Z,26.04
2023-04-04T06:25:38.421Z,26.03
2023-04-04T06:26:38.476Z,26.02
2023-04-04T06:27:38.414Z,26.01
2023-04-04T06:28:38.488Z,26.01
2023-04-04T06:29:38.475Z,26.01
2023-04-04T06:30:38.697Z,26.02
2023-04-04T06:31:38.544Z,26.02
2023-04-04T06:32:38.572Z,26.03
2023-04-04T06:33:38.554Z,26.05
2023-04-04T06:34:38.563Z,26.06
2023-04-04T06:35:38.679Z,26.06
2023-04-04T06:36:38.563Z,26.08
2023-04-04T06:37:38.678Z,26.09
2023-04-04T06:38:38.564Z,26.10
2023-04-04T06:39:38.597Z,26.12
2023-04-04T06:40:38.825Z,26.14
2023-04-04T06:41:38.595Z,26.16
2023-04-04T06:42:38.610Z,26.18
2023-04-04T06:43:38.568Z,26.20
2023-04-04T06:44:38.574Z,26.23
2023-04-04T06:45:38.585Z,26.26
2023-04-04T06:46:38.613Z,26.28
2023-04-04T06:47:38.602Z,26.30
2023-04-04T06:48:38.600Z,26.32
2023-04-04T06:49:38.624Z,26.35
2023-04-04T06:50:39.031Z,26.37
2023-04-04T06:51:38.732Z,26.39
2023-04-04T06:52:39.841Z,26.41
2023-04-04T06:53:38.803Z,26.44
2023-04-04T06:54:38.916Z,26.46
2023-04-04T06:55:38.969Z,26.48
2023-04-04T06:56:39.021Z,26.50
2023-04-04T06:57:39.081Z,26.54
2023-04-04T06:58:39.129Z,26.55
2023-04-04T06:59:39.148Z,26.59
2023-04-04T07:00:39.453Z,26.61
2023-04-04T07:01:39.268Z,26.63
2023-04-04T07:02:39.481Z,26.65
2023-04-04T07:03:39.356Z,26.67
2023-04-04T07:04:39.432Z,26.70
2023-04-04T07:05:39.483Z,26.72
2023-04-04T07:06:39.480Z,26.75
2023-04-04T07:07:39.564Z,26.78
2023-04-04T07:08:39.591Z,26.80
2023-04-04T07:09:39.619Z,26.82
2023-04-04T07:10:41.035Z,26.85
2023-04-04T07:11:39.649Z,26.88
2023-04-04T07:12:39.675Z,26.91
2023-04-04T07:13:39.701Z,26.93
2023-04-04T07:14:39.708Z,26.94
2023-04-04T07:15:39.688Z,26.96
2023-04-04T07:16:39.750Z,26.98
2023-04-04T07:17:39.746Z,27.00
2023-04-04T07:18:39.797Z,27.01
2023-04-04T07:19:39.791Z,27.04
2023-04-04T07:20:39.944Z,27.06
2023-04-04T07:21:39.789Z,27.08
2023-04-04T07:22:39.808Z,27.11
2023-04-04T07:23:39.883Z,27.12
2023-04-04T07:24:39.804Z,27.15
2023-04-04T07:25:39.834Z,27.18
2023-04-04T07:26:39.793Z,27.19
2023-04-04T07:27:39.815Z,27.22
2023-04-04T07:28:39.832Z,27.25
2023-04-04T07:29:39.822Z,27.27
2023-04-04T07:30:39.977Z,27.29
2023-04-04T07:31:39.830Z,27.31
2023-04-04T07:32:39.842Z,27.33
2023-04-04T07:33:39.876Z,27.34
2023-04-04T07:34:39.910Z,27.38
2023-04-04T07:35:40.043Z,27.40
2023-04-04T07:36:40.017Z,27.43
2023-04-04T07:37:40.112Z,27.43
2023-04-04T07:38:40.165Z,27.45
2023-04-04T07:39:40.242Z,27.45
2023-04-04T07:40:40.466Z,27.47
2023-04-04T07:41:40.351Z,27.49
2023-04-04T07:42:40.411Z,27.49
2023-04-04T07:43:40.448Z,27.50
2023-04-04T07:44:40.484Z,27.51
2023-04-04T07:45:40.571Z,27.54
2023-04-04T07:46:40.650Z,27.56
2023-04-04T07:47:40.715Z,27.58
2023-04-04T07:48:40.762Z,27.60
2023-04-04T07:49:40.806Z,27.60
2023-04-04T07:50:41.004Z,27.62
2023-04-04T07:51:40.871Z,27.63
2023-04-04T07:52:40.922Z,27.63
2023-04-04T07:53:40.958Z,27.63
2023-04-04T07:54:41.002Z,27.63
2023-04-04T07:55:41.057Z,27.62
2023-04-04T07:56:41.117Z,27.61
2023-04-04T07:57:41.169Z,27.62
2023-04-04T07:58:41.244Z,27.62
2023-04-04T07:59:41.262Z,27.62
2023-04-04T08:00:41.364Z,27.63
2023-04-04T08:01:41.330Z,27.64
2023-04-04T08:02:41.397Z,27.65
2023-04-04T08:03:41.625Z,27.65
2023-04-04T08:04:41.666Z,27.66
2023-04-04T08:05:41.480Z,27.66
2023-04-04T08:06:41.529Z,27.67
2023-04-04T08:07:41.597Z,27.68
2023-04-04T08:08:41.647Z,27.70
2023-04-04T08:09:41.668Z,27.70
2023-04-04T08:10:41.896Z,27.72
2023-04-04T08:11:41.731Z,27.71
2023-04-04T08:12:41.787Z,27.71
2023-04-04T08:13:41.813Z,27.69
2023-04-04T08:14:41.855Z,27.70
2023-04-04T08:15:41.932Z,27.71
2023-04-04T08:16:41.981Z,27.71
2023-04-04T08:17:42.012Z,27.71
2023-04-04T08:18:42.014Z,27.71
2023-04-04T08:19:42.021Z,27.70
2023-04-04T08:20:42.166Z,27.70
2023-04-04T08:21:42.115Z,27.70
2023-04-04T08:22:42.149Z,27.71
2023-04-04T08:23:42.225Z,27.70
2023-04-04T08:24:42.230Z,27.70
2023-04-04T08:25:42.234Z,27.70
2023-04-04T08:26:43.527Z,27.70
2023-04-04T08:27:42.296Z,27.70
2023-04-04T08:28:42.302Z,27.71
2023-04-04T08:29:42.300Z,27.71
2023-04-04T08:30:42.271Z,27.72
2023-04-04T08:31:42.344Z,27.72
2023-04-04T08:32:42.296Z,27.73
2023-04-04T08:33:47.446Z,27.73
2023-04-04T08:34:43.268Z,27.73
2023-04-04T08:35:42.277Z,27.73
2023-04-04T08:36:42.206Z,27.72
2023-04-04T08:37:42.212Z,27.73
2023-04-04T08:38:42.189Z,27.72
2023-04-04T08:39:42.231Z,27.72
2023-04-04T08:40:42.252Z,27.73
2023-04-04T08:41:42.167Z,27.73
2023-04-04T08:42:42.191Z,27.73
2023-04-04T08:43:42.213Z,27.74
2023-04-04T08:44:42.161Z,27.74
2023-04-04T08:45:42.133Z,27.75
2023-04-04T08:46:42.235Z,27.76
2023-04-04T08:47:42.161Z,27.74
2023-04-04T08:48:42.127Z,27.75
2023-04-04T08:49:42.144Z,27.76
2023-04-04T08:50:42.247Z,27.76
2023-04-04T08:51:44.632Z,27.75
2023-04-04T08:52:42.330Z,27.76
2023-04-04T08:53:42.360Z,27.75
2023-04-04T08:54:42.381Z,27.75
2023-04-04T08:55:42.578Z,27.75
2023-04-04T08:56:42.412Z,27.75
2023-04-04T08:57:42.466Z,27.76
2023-04-04T08:58:42.554Z,27.75
2023-04-04T08:59:42.622Z,27.74
2023-04-04T09:00:42.884Z,27.75
2023-04-04T09:01:42.666Z,27.75
2023-04-04T09:02:42.714Z,27.75
2023-04-04T09:03:42.651Z,27.75
2023-04-04T09:04:44.648Z,27.75
2023-04-04T09:05:43.680Z,27.75
2023-04-04T09:06:42.738Z,27.75
2023-04-04T09:07:42.697Z,27.75
2023-04-04T09:08:42.709Z,27.74
2023-04-04T09:09:42.700Z,27.74
2023-04-04T09:10:43.302Z,27.74
2023-04-04T09:11:42.628Z,27.74
2023-04-04T09:12:42.875Z,27.74
2023-04-04T09:13:42.725Z,27.74
2023-04-04T09:14:42.639Z,27.74
2023-04-04T09:15:42.685Z,27.74
2023-04-04T09:16:42.690Z,27.74
2023-04-04T09:17:42.764Z,27.74
2023-04-04T09:18:42.658Z,27.74
2023-04-04T09:19:42.821Z,27.73
2023-04-04T09:20:42.900Z,27.73
2023-04-04T09:21:42.627Z,27.73
2023-04-04T09:22:42.646Z,27.71
2023-04-04T09:23:42.718Z,27.72
2023-04-04T09:24:42.722Z,27.72
2023-04-04T09:25:47.431Z,27.72
2023-04-04T09:26:43.716Z,27.72
2023-04-04T09:27:42.702Z,27.71
2023-04-04T09:28:42.719Z,27.70
2023-04-04T09:29:42.733Z,27.71
2023-04-04T09:30:42.687Z,27.70
2023-04-04T09:31:42.701Z,27.69
2023-04-04T09:32:42.690Z,27.69
2023-04-04T09:33:42.665Z,27.69
2023-04-04T09:34:42.722Z,27.68
2023-04-04T09:35:42.733Z,27.68
2023-04-04T09:36:42.911Z,27.68
2023-04-04T09:37:42.692Z,27.67
2023-04-04T09:38:42.672Z,27.67
2023-04-04T09:39:42.644Z,27.66
2023-04-04T09:40:42.854Z,27.66
2023-04-04T09:41:42.687Z,27.66
2023-04-04T09:42:42.759Z,27.66
2023-04-04T09:43:42.725Z,27.66
2023-04-04T09:44:42.780Z,27.65
2023-04-04T09:45:42.819Z,27.65
2023-04-04T09:46:42.933Z,27.64
2023-04-04T09:47:42.932Z,27.63
2023-04-04T09:48:42.919Z,27.63
2023-04-04T09:49:42.946Z,27.63
2023-04-04T09:50:42.981Z,27.62
2023-04-04T09:51:43.074Z,27.62
2023-04-04T09:52:43.040Z,27.62
2023-04-04T09:53:43.091Z,27.61
2023-04-04T09:54:48.429Z,27.60
2023-04-04T09:55:44.140Z,27.59
2023-04-04T09:56:43.113Z,27.59
2023-04-04T09:57:43.128Z,27.59
2023-04-04T09:58:49.481Z,27.57
2023-04-04T09:59:44.109Z,27.57
2023-04-04T10:00:43.096Z,27.56
2023-04-04T10:01:43.143Z,27.56
2023-04-04T10:02:43.115Z,27.56
2023-04-04T10:03:43.144Z,27.55
2023-04-04T10:04:44.490Z,27.54
2023-04-04T10:05:43.085Z,27.54
2023-04-04T10:06:43.067Z,27.53
2023-04-04T10:07:43.039Z,27.53
2023-04-04T10:08:43.036Z,27.53
2023-04-04T10:09:43.034Z,27.51
2023-04-04T10:10:43.011Z,27.51
2023-04-04T10:11:43.101Z,27.49
2023-04-04T10:12:43.132Z,27.49
2023-04-04T10:13:43.155Z,27.49
2023-04-04T10:14:43.192Z,27.48
2023-04-04T10:15:43.244Z,27.47
2023-04-04T10:16:43.313Z,27.47
2023-04-04T10:17:43.382Z,27.47
2023-04-04T10:18:43.390Z,27.46
2023-04-04T10:19:43.430Z,27.45
2023-04-04T10:20:43.445Z,27.45
2023-04-04T10:21:43.511Z,27.44
2023-04-04T10:22:44.670Z,27.43
2023-04-04T10:23:43.588Z,27.43
2023-04-04T10:24:43.672Z,27.42
2023-04-04T10:25:43.731Z,27.41
2023-04-04T10:26:43.789Z,27.41
2023-04-04T10:27:43.871Z,27.40
2023-04-04T10:28:44.034Z,27.40
2023-04-04T10:29:43.944Z,27.39
2023-04-04T10:30:55.651Z,27.38
2023-04-04T10:31:45.089Z,27.37
2023-04-04T10:32:44.009Z,27.37
2023-04-04T10:33:43.979Z,27.36
2023-04-04T10:34:44.007Z,27.36
2023-04-04T10:35:43.960Z,27.35
2023-04-04T10:36:43.961Z,27.35
2023-04-04T10:37:43.973Z,27.34
2023-04-04T10:38:43.931Z,27.32
2023-04-04T10:39:43.987Z,27.33
2023-04-04T10:40:43.993Z,27.32
2023-04-04T10:41:44.060Z,27.31
2023-04-04T10:42:46.579Z,27.30
2023-04-04T10:43:44.096Z,27.30
2023-04-04T10:44:44.140Z,27.29
2023-04-04T10:45:44.090Z,27.28
2023-04-04T10:46:44.171Z,27.28
2023-04-04T10:47:44.103Z,27.27
2023-04-04T10:48:44.099Z,27.26
2023-04-04T10:49:44.052Z,27.26
2023-04-04T10:50:44.062Z,27.25
2023-04-04T10:51:54.923Z,27.24
2023-04-04T10:52:45.080Z,27.24
2023-04-04T10:53:44.044Z,27.23
2023-04-04T10:54:44.012Z,27.22
2023-04-04T10:55:44.021Z,27.22
2023-04-04T10:56:44.006Z,27.22
2023-04-04T10:57:44.072Z,27.21
2023-04-04T10:58:44.004Z,27.20
2023-04-04T10:59:43.972Z,27.19
2023-04-04T11:00:44.040Z,27.19
2023-04-04T11:01:44.078Z,27.18
2023-04-04T11:02:44.176Z,27.18
2023-04-04T11:03:44.195Z,27.17
2023-04-04T11:04:44.299Z,27.16
2023-04-04T11:05:44.284Z,27.15
2023-04-04T11:06:44.370Z,27.14
2023-04-04T11:07:47.362Z,27.14
2023-04-04T11:08:45.437Z,27.13
2023-04-04T11:09:44.420Z,27.13
2023-04-04T11:10:44.413Z,27.13
2023-04-04T11:11:44.416Z,27.11
2023-04-04T11:12:44.421Z,27.11
2023-04-04T11:13:44.395Z,27.10
2023-04-04T11:14:44.531Z,27.10
2023-04-04T11:15:44.385Z,27.10
2023-04-04T11:16:44.446Z,27.08
2023-04-04T11:17:44.351Z,27.08
2023-04-04T11:18:44.512Z,27.07
2023-04-04T11:19:44.366Z,27.06
2023-04-04T11:20:44.373Z,27.06
2023-04-04T11:21:44.382Z,27.05
2023-04-04T11:22:44.313Z,27.05
2023-04-04T11:23:44.318Z,27.04
2023-04-04T11:24:44.320Z,27.04
2023-04-04T11:25:44.299Z,27.03
2023-04-04T11:26:44.266Z,27.02
2023-04-04T11:27:44.305Z,27.02
2023-04-04T11:28:44.238Z,27.00
2023-04-04T11:29:44.248Z,27.00
2023-04-04T11:30:44.224Z,27.00
2023-04-04T11:31:44.307Z,26.99
2023-04-04T11:32:50.098Z,26.99
2023-04-04T11:33:45.285Z,26.98
2023-04-04T11:34:44.212Z,26.98
2023-04-04T11:35:44.268Z,26.97
2023-04-04T11:36:44.188Z,26.97
2023-04-04T11:37:44.219Z,26.96
2023-04-04T11:38:44.226Z,26.96
2023-04-04T11:39:44.240Z,26.96
2023-04-04T11:40:44.159Z,26.95
2023-04-04T11:41:44.167Z,26.95
2023-04-04T11:42:44.208Z,26.95
2023-04-04T11:43:44.156Z,26.94
2023-04-04T11:44:44.220Z,26.95
2023-04-04T11:45:44.215Z,26.94
2023-04-04T11:46:44.123Z,26.94
2023-04-04T11:47:44.170Z,26.93
2023-04-04T11:48:44.147Z,26.93
2023-04-04T11:49:44.165Z,26.93
2023-04-04T11:50:44.119Z,26.92
2023-04-04T11:51:44.099Z,26.92
2023-04-04T11:52:44.123Z,26.92
2023-04-04T11:53:44.112Z,26.91
2023-04-04T11:54:44.091Z,26.91
2023-04-04T11:55:44.095Z,26.91
2023-04-04T11:56:44.050Z,26.91
2023-04-04T11:57:44.080Z,26.90
2023-04-04T11:58:44.062Z,26.90
2023-04-04T11:59:44.127Z,26.90
2023-04-04T12:00:44.068Z,26.89
2023-04-04T12:01:44.094Z,26.89
2023-04-04T12:02:44.081Z,26.88
2023-04-04T12:03:44.074Z,26.89
2023-04-04T12:04:44.167Z,26.87
2023-04-04T12:05:44.543Z,26.87
2023-04-04T12:06:43.986Z,26.87
2023-04-04T12:07:44.010Z,26.87
2023-04-04T12:08:44.007Z,26.87
2023-04-04T12:09:44.027Z,26.86
2023-04-04T12:10:43.962Z,26.85
2023-04-04T12:11:43.954Z,26.85
2023-04-04T12:12:44.013Z,26.85
2023-04-04T12:13:43.962Z,26.84
2023-04-04T12:14:43.956Z,26.84
2023-04-04T12:15:44.096Z,26.83
2023-04-04T12:16:43.970Z,26.83
2023-04-04T12:17:44.014Z,26.82
2023-04-04T12:18:44.048Z,26.82
2023-04-04T12:19:44.052Z,26.82
2023-04-04T12:20:43.994Z,26.82
2023-04-04T12:21:44.024Z,26.82
2023-04-04T12:22:44.031Z,26.81
2023-04-04T12:23:44.073Z,26.80
2023-04-04T12:24:44.084Z,26.80
2023-04-04T12:25:44.094Z,26.80
2023-04-04T12:26:44.107Z,26.79
2023-04-04T12:27:44.113Z,26.78
2023-04-04T12:28:44.102Z,26.78
2023-04-04T12:29:44.106Z,26.78
2023-04-04T12:30:44.173Z,26.77
2023-04-04T12:31:44.153Z,26.76
2023-04-04T12:32:44.160Z,26.76
2023-04-04T12:33:44.229Z,26.75
2023-04-04T12:34:48.490Z,26.76
2023-04-04T12:35:45.222Z,26.75
2023-04-04T12:36:44.177Z,26.74
2023-04-04T12:37:44.179Z,26.74
2023-04-04T12:38:44.160Z,26.73
2023-04-04T12:39:44.152Z,26.74
2023-04-04T12:40:44.141Z,26.72
2023-04-04T12:41:44.132Z,26.72
2023-04-04T12:42:44.148Z,26.72
2023-04-04T12:43:44.122Z,26.71
2023-04-04T12:44:44.115Z,26.71
2023-04-04T12:45:44.117Z,26.72
2023-04-04T12:46:45.885Z,26.71
2023-04-04T12:47:44.135Z,26.70
2023-04-04T12:48:44.071Z,26.70
2023-04-04T12:49:44.074Z,26.70
2023-04-04T12:50:44.096Z,26.69
2023-04-04T12:51:44.047Z,26.68
2023-04-04T12:52:45.075Z,26.68